»·PEaware :: N374ED KYKM-KSEA

N374ED :: KYKM-KSEA

FLIGHT INFORMATION

Flight Status: Arrived
Operator: Privately registered:
United States
More flights under this callsign
Pilot: Eric D. (9648)
Aircraft: BEECH AIRCRAFT BARON
(BE58)
More flights by this aircraft type
Origin: KYKM Yakima Air Term/Mcallister
United States
Destination: KSEA Seattle-Tacoma Intl
United States
More flights between these airports :: More routes between these airports
Route: +WENAS7 TITON V4 SEA
File this flight plan on PilotEdge
Remarks:
Altitude:
(Current/Filed)
10,000ft
Speed:
(Current/Filed)
180kts
Departed: 30-Apr-20 09:22 AM
Arrived: 30-Apr-20 10:00 AM
Distance/Time
Traveled:
90nm/0:38
Distance/Time
To Go:
Arrived

Flight Plot

Page will automatically refresh every two minutes.


Map Options




Map Legend


Flown Route
Filed Route
Departure Airport
Arrival Airport
Navaid (VOR, NDB)
Fix

Horizontal Profiles

Position Reports

Time Latitude Longitude Heading Altitude Ground
Speed
30-Apr-20 09:12 46.567408 -120.530969 270 1050ft 0kts
30-Apr-20 09:13 46.567408 -120.530969 270 1050ft 0kts
30-Apr-20 09:14 46.567408 -120.530969 270 1050ft 0kts
30-Apr-20 09:15 46.567408 -120.530969 269 1050ft 0kts
30-Apr-20 09:16 46.567408 -120.530969 270 1050ft 0kts
30-Apr-20 09:17 46.567408 -120.530969 270 1050ft 0kts
30-Apr-20 09:18 46.567408 -120.530970 270 1050ft 0kts
30-Apr-20 09:19 46.566718 -120.531511 177 1051ft 9kts
30-Apr-20 09:20 46.565955 -120.531530 182 1051ft 11kts
30-Apr-20 09:21 46.573250 -120.558943 297 1898ft 116kts
30-Apr-20 09:22 46.581377 -120.604282 274 3426ft 119kts
30-Apr-20 09:23 46.585090 -120.651403 273 5010ft 117kts
30-Apr-20 09:24 46.613163 -120.656884 23 6380ft 141kts
30-Apr-20 09:25 46.649278 -120.630965 24 7589ft 148kts
30-Apr-20 09:26 46.673312 -120.656157 289 8716ft 123kts
30-Apr-20 09:27 46.692085 -120.699112 296 9733ft 127kts
30-Apr-20 09:28 46.714578 -120.747326 298 9997ft 164kts
30-Apr-20 09:29 46.742015 -120.805093 298 9994ft 179kts
30-Apr-20 09:30 46.771093 -120.866516 298 9992ft 186kts
30-Apr-20 09:31 46.800548 -120.928932 299 9992ft 186kts
30-Apr-20 09:32 46.830016 -120.991511 299 9991ft 185kts
30-Apr-20 09:33 46.859128 -121.053473 299 9991ft 183kts
30-Apr-20 09:34 46.887842 -121.114727 299 9990ft 181kts
30-Apr-20 09:35 46.916287 -121.175586 299 9990ft 180kts
30-Apr-20 09:36 46.944607 -121.236356 300 9997ft 181kts
30-Apr-20 09:37 46.973120 -121.297336 300 10046ft 184kts
30-Apr-20 09:38 47.002112 -121.359856 300 10077ft 186kts
30-Apr-20 09:39 47.031522 -121.423360 300 10113ft 189kts
30-Apr-20 09:40 47.061287 -121.487649 301 10124ft 191kts
30-Apr-20 09:41 47.091316 -121.552695 300 10117ft 193kts
30-Apr-20 09:42 47.121746 -121.618792 300 10108ft 193kts
30-Apr-20 09:44 47.151962 -121.684599 300 10103ft 193kts
30-Apr-20 09:45 47.182106 -121.750439 300 10104ft 193kts
30-Apr-20 09:46 47.212158 -121.816205 300 10109ft 193kts
30-Apr-20 09:47 47.242087 -121.881847 300 10093ft 194kts
30-Apr-20 09:48 47.272754 -121.949251 300 9390ft 198kts
30-Apr-20 09:49 47.303516 -122.017069 300 8504ft 199kts
30-Apr-20 09:50 47.333681 -122.083707 300 7592ft 193kts
30-Apr-20 09:51 47.363430 -122.149599 300 6685ft 193kts
30-Apr-20 09:52 47.394791 -122.213617 326 5771ft 198kts
30-Apr-20 09:53 47.444246 -122.243657 350 4852ft 180kts
30-Apr-20 09:54 47.489057 -122.252539 350 3919ft 150kts
30-Apr-20 09:55 47.529134 -122.260410 350 2985ft 144kts
30-Apr-20 09:56 47.539254 -122.298990 223 1852ft 109kts
30-Apr-20 09:57 47.514026 -122.307101 180 1552ft 89kts
30-Apr-20 09:58 47.489029 -122.307531 182 999ft 88kts
30-Apr-20 09:59 47.464816 -122.307715 181 458ft 72kts
30-Apr-20 10:00 47.460135 -122.306418 50 436ft 0kts
30-Apr-20 10:00 47.460580 -122.306152 358 436ft 9kts
30-Apr-20 10:02 47.463808 -122.304812 50 436ft 13kts

Navigation Log

Ident Type
Flight plan parsing failed, navigation log unavailable